Time;durP1;ratioP1;P1;durP2;ratioP2;P2;SDS_P1;SDS_P2;PMS_P1;PMS_P2;Temp;Humidity;BMP_temperature;BMP_pressure;BME280_temperature;BME280_humidity;BME280_pressure;Samples;Min_cycle;Max_cycle;Signal;HPM_P1;HPM_P2
2021/09/10 00:02:21;;;;;;;0.80;0.80;;;18.70;99.90;;;;;;4445367;32;20065;-69
2021/09/10 00:04:46;;;;;;;1.58;1.05;;;18.50;99.90;;;;;;4430672;32;20108;-69
2021/09/10 00:07:12;;;;;;;0.85;0.60;;;18.50;99.90;;;;;;4445340;32;20068;-68
2021/09/10 00:09:37;;;;;;;4.20;0.50;;;18.40;99.90;;;;;;4445133;32;20069;-68
2021/09/10 00:12:03;;;;;;;0.55;0.55;;;18.30;99.90;;;;;;4445170;32;20062;-68
2021/09/10 00:14:29;;;;;;;1.15;1.05;;;18.50;99.90;;;;;;4444184;32;20081;-68
2021/09/10 00:16:54;;;;;;;16.17;2.17;;;18.50;99.90;;;;;;4445761;32;20131;-68
2021/09/10 00:19:20;;;;;;;0.73;0.73;;;18.50;99.90;;;;;;4444467;32;20057;-69
2021/09/10 00:21:45;;;;;;;0.60;0.60;;;18.70;99.90;;;;;;4431136;32;20065;-69
2021/09/10 00:24:11;;;;;;;0.47;0.47;;;18.70;99.90;;;;;;4447688;32;20510;-68
2021/09/10 00:26:36;;;;;;;0.82;0.65;;;18.70;99.90;;;;;;4447225;32;20123;-69
2021/09/10 00:29:02;;;;;;;3.58;1.42;;;18.70;99.90;;;;;;4447212;32;20062;-69
2021/09/10 00:31:27;;;;;;;0.62;0.62;;;18.70;99.90;;;;;;4446916;32;20130;-69
2021/09/10 00:33:53;;;;;;;0.57;0.57;;;18.60;99.90;;;;;;4430997;32;20090;-69
2021/09/10 00:36:18;;;;;;;3.62;0.95;;;18.60;99.90;;;;;;4421939;32;20073;-69
2021/09/10 00:38:44;;;;;;;1.00;0.60;;;18.50;99.90;;;;;;4417811;32;20113;-69
2021/09/10 00:41:09;;;;;;;2.50;1.05;;;18.50;99.90;;;;;;4415894;32;20525;-68
2021/09/10 00:43:35;;;;;;;0.60;0.60;;;18.40;99.90;;;;;;4415901;32;20057;-69
2021/09/10 00:46:00;;;;;;;1.33;0.60;;;18.40;99.90;;;;;;4416967;32;20073;-68
2021/09/10 00:48:27;;;;;;;0.80;0.80;;;18.30;99.90;;;;;;4416768;32;20096;-69
2021/09/10 00:50:53;;;;;;;0.85;0.85;;;18.30;99.90;;;;;;4416803;32;20082;-68
2021/09/10 00:53:18;;;;;;;0.50;0.50;;;18.30;99.90;;;;;;4425575;32;20065;-68
2021/09/10 00:55:45;;;;;;;10.98;2.60;;;18.40;99.90;;;;;;4431353;32;20081;-69
2021/09/10 00:58:11;;;;;;;1.08;0.65;;;18.40;99.90;;;;;;4430511;32;20160;-68
2021/09/10 01:00:37;;;;;;;0.50;0.50;;;18.40;99.90;;;;;;4430969;32;20120;-69
2021/09/10 01:03:03;;;;;;;1.60;0.52;;;18.60;99.90;;;;;;4431065;32;20486;-69
2021/09/10 01:05:28;;;;;;;0.40;0.40;;;18.50;99.90;;;;;;4431557;32;20085;-69
2021/09/10 01:07:57;;;;;;;1.30;1.05;;;18.70;99.90;;;;;;4431230;32;20070;-69
2021/09/10 01:10:22;;;;;;;0.60;0.60;;;18.80;99.90;;;;;;4431426;32;20130;-69
2021/09/10 01:12:49;;;;;;;0.62;0.60;;;18.90;99.90;;;;;;4431368;32;20475;-69
2021/09/10 01:15:15;;;;;;;1.30;0.80;;;18.90;99.90;;;;;;4431158;32;20124;-69
2021/09/10 01:17:41;;;;;;;1.23;1.00;;;18.80;99.90;;;;;;4430354;32;20065;-69
2021/09/10 01:20:08;;;;;;;0.68;0.68;;;18.70;99.90;;;;;;4432204;32;20065;-69
2021/09/10 01:22:34;;;;;;;0.75;0.68;;;18.70;99.90;;;;;;4432179;32;20080;-69
2021/09/10 01:25:11;;;;;;;1.70;1.02;;;18.70;99.90;;;;;;4431016;32;20123;-69
2021/09/10 01:27:40;;;;;;;0.98;0.57;;;18.40;99.90;;;;;;4431551;32;20070;-69
2021/09/10 01:30:06;;;;;;;1.50;1.00;;;18.20;99.90;;;;;;4417954;32;20494;-68
2021/09/10 01:32:32;;;;;;;1.30;0.90;;;18.00;99.90;;;;;;4421458;32;20069;-68
2021/09/10 01:34:58;;;;;;;0.43;0.43;;;18.00;99.90;;;;;;4415901;32;20127;-69
2021/09/10 01:37:23;;;;;;;3.47;1.50;;;18.00;99.90;;;;;;4417242;32;20115;-69
2021/09/10 01:39:48;;;;;;;4.37;0.60;;;18.20;99.90;;;;;;4430617;32;20074;-69
2021/09/10 01:42:14;;;;;;;3.53;1.67;;;18.20;99.90;;;;;;4430785;32;20061;-69
2021/09/10 01:44:39;;;;;;;0.70;0.70;;;18.20;99.90;;;;;;4418023;32;20076;-69
2021/09/10 01:47:05;;;;;;;3.33;0.82;;;18.20;99.90;;;;;;4430867;32;20077;-69
2021/09/10 01:49:30;;;;;;;0.55;0.43;;;18.10;99.90;;;;;;4431316;32;20058;-69
2021/09/10 01:51:56;;;;;;;0.68;0.52;;;18.10;99.90;;;;;;4432688;32;20087;-69
2021/09/10 01:54:21;;;;;;;0.68;0.68;;;18.10;99.90;;;;;;4446072;32;20069;-69
2021/09/10 01:56:47;;;;;;;2.78;1.10;;;18.00;99.90;;;;;;4446205;32;20069;-69
2021/09/10 01:59:12;;;;;;;0.52;0.52;;;18.00;99.90;;;;;;4445682;32;20074;-69
2021/09/10 02:01:38;;;;;;;0.65;0.65;;;17.90;99.90;;;;;;4447017;32;20069;-69
2021/09/10 02:04:03;;;;;;;2.53;0.80;;;17.80;99.90;;;;;;4432386;32;20068;-69
2021/09/10 02:06:29;;;;;;;0.50;0.50;;;17.60;99.90;;;;;;4446245;32;20073;-69
2021/09/10 02:08:54;;;;;;;1.95;1.02;;;17.60;99.90;;;;;;4433193;32;20085;-69
2021/09/10 02:11:20;;;;;;;0.50;0.50;;;17.70;99.90;;;;;;4446185;32;20057;-69
2021/09/10 02:13:45;;;;;;;1.50;0.98;;;17.70;99.90;;;;;;4445452;32;20125;-69
2021/09/10 02:16:11;;;;;;;0.70;0.70;;;17.60;99.90;;;;;;4446371;32;20514;-69
2021/09/10 02:18:37;;;;;;;1.20;1.10;;;17.60;99.90;;;;;;4446559;32;20065;-69
2021/09/10 02:21:03;;;;;;;2.03;1.02;;;17.60;99.90;;;;;;4431980;32;20124;-69
2021/09/10 02:23:29;;;;;;;1.20;1.10;;;17.50;99.90;;;;;;4445688;32;20397;-69
2021/09/10 02:25:54;;;;;;;2.87;0.98;;;17.50;99.90;;;;;;4445521;32;20112;-69
2021/09/10 02:28:20;;;;;;;2.83;1.08;;;17.50;99.90;;;;;;4446223;32;20540;-69
2021/09/10 02:30:45;;;;;;;5.55;0.88;;;17.40;99.90;;;;;;4447143;32;20060;-69
2021/09/10 02:33:13;;;;;;;0.62;0.60;;;17.30;99.90;;;;;;4445871;32;20076;-69
2021/09/10 02:35:38;;;;;;;0.60;0.60;;;17.30;99.90;;;;;;4438596;32;20061;-69
2021/09/10 02:38:04;;;;;;;1.83;1.08;;;17.50;99.90;;;;;;4417710;32;20499;-69
2021/09/10 02:40:29;;;;;;;0.70;0.70;;;17.40;99.90;;;;;;4429859;32;20057;-69
2021/09/10 02:42:55;;;;;;;0.55;0.55;;;17.50;99.90;;;;;;4415366;32;20140;-69
2021/09/10 02:45:20;;;;;;;0.40;0.40;;;17.40;99.90;;;;;;4429945;32;20057;-69
2021/09/10 02:47:46;;;;;;;1.37;0.75;;;17.40;99.90;;;;;;4417326;32;20061;-69
2021/09/10 02:50:11;;;;;;;0.57;0.57;;;17.20;99.90;;;;;;4430077;32;20057;-69
2021/09/10 02:52:37;;;;;;;6.75;1.85;;;17.20;99.90;;;;;;4436018;32;20088;-69
2021/09/10 02:55:04;;;;;;;1.92;0.82;;;17.20;99.90;;;;;;4445820;32;20062;-69
2021/09/10 02:57:29;;;;;;;0.88;0.80;;;17.10;99.90;;;;;;4446446;32;20525;-69
2021/09/10 02:59:55;;;;;;;0.50;0.50;;;17.00;99.90;;;;;;4444714;32;20108;-69
2021/09/10 03:02:21;;;;;;;0.80;0.80;;;17.10;99.90;;;;;;4445920;32;20407;-69
2021/09/10 03:04:47;;;;;;;0.50;0.50;;;17.20;99.90;;;;;;4445317;32;20061;-69
2021/09/10 03:07:14;;;;;;;0.85;0.68;;;17.10;99.90;;;;;;4432072;32;20084;-69
2021/09/10 03:09:39;;;;;;;0.50;0.50;;;17.10;99.90;;;;;;4445986;32;20064;-69
2021/09/10 03:12:05;;;;;;;1.60;0.70;;;17.10;99.90;;;;;;4445803;32;20423;-69
2021/09/10 03:14:31;;;;;;;0.75;0.60;;;17.20;99.90;;;;;;4445244;32;20306;-69
2021/09/10 03:16:57;;;;;;;0.60;0.60;;;17.20;99.90;;;;;;4446351;32;20069;-69
2021/09/10 03:19:25;;;;;;;0.68;0.68;;;17.20;99.90;;;;;;4445251;32;20065;-69
2021/09/10 03:21:50;;;;;;;0.70;0.60;;;17.10;99.90;;;;;;4445162;32;20073;-69
2021/09/10 03:24:16;;;;;;;1.42;0.77;;;17.10;99.90;;;;;;4445085;32;20064;-69
2021/09/10 03:26:42;;;;;;;0.77;0.75;;;17.20;99.90;;;;;;4445733;32;20501;-69
2021/09/10 03:29:08;;;;;;;0.82;0.73;;;17.30;99.90;;;;;;4430847;32;20121;-68
2021/09/10 03:31:34;;;;;;;0.60;0.60;;;17.20;99.90;;;;;;4445537;32;20128;-69
2021/09/10 03:34:00;;;;;;;1.12;0.70;;;17.20;99.90;;;;;;4445226;32;20119;-68
2021/09/10 03:36:26;;;;;;;0.50;0.50;;;17.10;99.90;;;;;;4432784;32;20065;-69
2021/09/10 03:38:52;;;;;;;5.80;1.77;;;17.00;99.90;;;;;;4430588;32;20073;-69
2021/09/10 03:41:17;;;;;;;0.70;0.70;;;17.00;99.90;;;;;;4429332;32;20069;-69
2021/09/10 03:43:43;;;;;;;0.68;0.62;;;17.10;99.90;;;;;;4429479;32;20061;-69
2021/09/10 03:46:10;;;;;;;1.92;0.93;;;17.10;99.90;;;;;;4430280;32;20069;-69
2021/09/10 03:48:36;;;;;;;3.87;0.88;;;16.90;99.90;;;;;;4415184;32;20078;-69
2021/09/10 03:51:01;;;;;;;6.90;1.08;;;16.80;99.90;;;;;;4415790;32;20530;-69
2021/09/10 03:53:27;;;;;;;2.72;1.25;;;16.70;99.90;;;;;;4441401;32;20442;-69
2021/09/10 03:55:52;;;;;;;1.30;0.77;;;16.80;99.90;;;;;;4445031;32;20065;-69
2021/09/10 03:58:18;;;;;;;1.62;0.75;;;16.90;99.90;;;;;;4443414;32;20073;-69
2021/09/10 04:00:44;;;;;;;1.80;0.70;;;16.90;99.90;;;;;;4444672;32;20072;-68
2021/09/10 04:03:09;;;;;;;1.37;0.60;;;16.80;99.90;;;;;;4444984;32;20407;-69
2021/09/10 04:05:35;;;;;;;1.05;0.95;;;17.00;99.90;;;;;;4444445;32;20078;-69
2021/09/10 04:08:00;;;;;;;0.70;0.70;;;17.00;99.90;;;;;;4430551;32;20111;-69
2021/09/10 04:10:26;;;;;;;4.85;2.45;;;16.90;99.90;;;;;;4444853;32;20139;-69
2021/09/10 04:12:53;;;;;;;0.55;0.40;;;17.20;99.90;;;;;;4430607;32;20133;-69
2021/09/10 04:15:18;;;;;;;8.65;0.65;;;17.30;99.90;;;;;;4444529;32;20070;-69
2021/09/10 04:17:44;;;;;;;2.70;0.90;;;17.30;99.90;;;;;;4444117;32;20060;-69
2021/09/10 04:20:12;;;;;;;0.70;0.70;;;17.20;99.90;;;;;;4445053;32;20085;-69
2021/09/10 04:22:37;;;;;;;0.50;0.50;;;17.10;99.90;;;;;;4424954;32;20073;-68
2021/09/10 04:25:05;;;;;;;2.33;0.77;;;17.30;99.90;;;;;;4426184;32;20482;-68
2021/09/10 04:27:31;;;;;;;0.60;0.60;;;17.30;99.90;;;;;;4427124;32;20090;-68
2021/09/10 04:29:58;;;;;;;0.60;0.60;;;17.20;99.90;;;;;;4428446;32;20069;-68
2021/09/10 04:32:24;;;;;;;1.75;1.12;;;17.10;99.90;;;;;;4428370;32;20070;-68
2021/09/10 04:34:49;;;;;;;0.68;0.68;;;17.10;99.90;;;;;;4415035;32;20116;-68
2021/09/10 04:37:15;;;;;;;1.50;0.77;;;17.10;99.90;;;;;;4428467;32;20073;-68
2021/09/10 04:39:40;;;;;;;0.70;0.70;;;17.10;99.90;;;;;;4432291;32;20576;-68
2021/09/10 04:42:06;;;;;;;1.05;0.75;;;17.10;99.90;;;;;;4444504;32;20419;-68
2021/09/10 04:44:31;;;;;;;1.12;0.95;;;17.10;99.90;;;;;;4444993;32;20085;-68
2021/09/10 04:46:57;;;;;;;1.05;0.80;;;17.00;99.90;;;;;;4444049;32;20069;-68
2021/09/10 04:49:23;;;;;;;0.40;0.40;;;17.00;99.90;;;;;;4444674;32;20061;-68
2021/09/10 04:51:48;;;;;;;1.67;0.62;;;17.00;99.90;;;;;;4443936;32;20076;-68
2021/09/10 04:54:16;;;;;;;0.52;0.52;;;17.10;99.90;;;;;;4428648;32;20138;-68
2021/09/10 04:56:42;;;;;;;2.00;1.12;;;17.10;99.90;;;;;;4428343;32;20069;-68
2021/09/10 04:59:08;;;;;;;2.85;0.85;;;17.10;99.90;;;;;;4426583;32;20065;-68
2021/09/10 05:01:34;;;;;;;1.75;0.90;;;17.20;99.90;;;;;;4403023;32;20102;-68
2021/09/10 05:03:59;;;;;;;0.98;0.93;;;17.10;99.90;;;;;;4422767;32;20065;-68
2021/09/10 05:06:25;;;;;;;0.40;0.40;;;16.90;99.90;;;;;;4427540;32;20057;-68
2021/09/10 05:08:51;;;;;;;0.93;0.93;;;16.80;99.90;;;;;;4431716;32;21007;-68
2021/09/10 05:11:16;;;;;;;2.62;0.73;;;16.80;99.90;;;;;;4425871;32;20782;-68
2021/09/10 05:13:42;;;;;;;7.95;1.23;;;16.80;99.90;;;;;;4426459;32;20086;-68
2021/09/10 05:16:07;;;;;;;2.12;1.20;;;16.90;99.90;;;;;;4430296;32;20130;-68
2021/09/10 05:18:33;;;;;;;0.70;0.70;;;16.90;99.90;;;;;;4416357;32;20669;-68
2021/09/10 05:20:59;;;;;;;0.70;0.65;;;17.00;99.90;;;;;;4431093;32;20065;-67
2021/09/10 05:23:25;;;;;;;2.40;1.05;;;17.10;99.90;;;;;;4428200;32;20432;-68
2021/09/10 05:25:51;;;;;;;1.55;1.10;;;17.10;99.90;;;;;;4425322;32;20081;-68
2021/09/10 05:28:16;;;;;;;1.40;1.10;;;17.20;99.90;;;;;;4410462;32;20085;-68
2021/09/10 05:30:41;;;;;;;0.98;0.88;;;17.40;99.90;;;;;;4413166;32;20076;-68
2021/09/10 05:33:07;;;;;;;2.42;0.82;;;17.50;99.90;;;;;;4410152;32;20645;-69
2021/09/10 05:35:32;;;;;;;1.75;1.25;;;17.50;99.90;;;;;;4429445;32;20061;-68
2021/09/10 05:37:58;;;;;;;3.72;1.67;;;17.50;99.90;;;;;;4420623;32;20089;-68
2021/09/10 05:40:23;;;;;;;1.12;0.90;;;17.60;99.90;;;;;;4420202;32;20073;-68
2021/09/10 05:42:49;;;;;;;0.60;0.60;;;17.60;99.90;;;;;;4418928;32;20550;-68
2021/09/10 05:45:15;;;;;;;0.65;0.65;;;17.60;99.90;;;;;;4419327;32;20097;-69
2021/09/10 05:47:41;;;;;;;0.65;0.62;;;17.60;99.90;;;;;;4422155;32;20282;-70
2021/09/10 05:50:07;;;;;;;0.65;0.40;;;17.60;99.90;;;;;;4420632;32;20122;-69
2021/09/10 05:52:32;;;;;;;2.90;1.17;;;17.70;99.90;;;;;;4421670;32;20136;-70
2021/09/10 05:54:58;;;;;;;2.30;1.35;;;17.60;99.90;;;;;;4426769;32;20178;-69
2021/09/10 05:57:23;;;;;;;1.70;1.20;;;17.70;99.90;;;;;;4423238;32;20146;-69
2021/09/10 05:59:49;;;;;;;1.20;1.10;;;17.80;99.90;;;;;;4416620;32;20066;-69
2021/09/10 06:02:14;;;;;;;3.80;1.25;;;17.80;99.90;;;;;;4399963;32;20089;-69
2021/09/10 06:04:40;;;;;;;1.23;0.93;;;17.80;99.90;;;;;;4409943;32;20104;-70
2021/09/10 06:07:05;;;;;;;0.62;0.60;;;17.80;99.90;;;;;;4419856;32;20502;-69
2021/09/10 06:09:31;;;;;;;3.03;1.25;;;17.90;99.90;;;;;;4427624;32;20152;-69
2021/09/10 06:11:57;;;;;;;1.35;0.98;;;17.80;99.90;;;;;;4426043;32;20078;-69
2021/09/10 06:14:23;;;;;;;1.58;1.02;;;17.90;99.90;;;;;;4422810;32;20065;-69
2021/09/10 06:16:48;;;;;;;1.20;1.10;;;17.90;99.90;;;;;;4409531;32;20076;-69
2021/09/10 06:19:13;;;;;;;8.40;2.80;;;18.00;99.90;;;;;;4422523;32;20085;-69
2021/09/10 06:21:39;;;;;;;1.35;0.85;;;18.10;99.90;;;;;;4408363;32;20097;-70
2021/09/10 06:24:05;;;;;;;1.50;0.77;;;18.10;99.90;;;;;;4418433;32;95612;-70
2021/09/10 06:26:30;;;;;;;1.20;0.80;;;18.20;99.90;;;;;;4424330;32;20053;-70
2021/09/10 06:28:57;;;;;;;0.57;0.57;;;18.30;99.90;;;;;;4420460;32;20081;-69
2021/09/10 06:31:22;;;;;;;1.48;1.20;;;18.30;99.90;;;;;;4422882;32;20097;-70
2021/09/10 06:33:48;;;;;;;0.88;0.75;;;18.30;99.90;;;;;;4418614;32;20138;-69
2021/09/10 06:36:13;;;;;;;0.70;0.70;;;18.30;99.90;;;;;;4417232;32;20597;-69
2021/09/10 06:38:39;;;;;;;5.03;0.95;;;18.40;99.90;;;;;;4422094;32;20074;-69
2021/09/10 06:41:04;;;;;;;2.72;1.35;;;18.50;99.90;;;;;;4419074;32;20082;-69
2021/09/10 06:43:30;;;;;;;0.77;0.77;;;18.60;99.90;;;;;;4403485;32;20065;-70
2021/09/10 06:45:55;;;;;;;1.95;1.52;;;18.60;99.90;;;;;;4418174;32;20083;-70
2021/09/10 06:48:21;;;;;;;0.52;0.52;;;18.70;99.90;;;;;;4420859;32;20058;-69
2021/09/10 06:50:46;;;;;;;3.70;0.80;;;18.80;99.90;;;;;;4417563;32;20077;-70
2021/09/10 06:53:12;;;;;;;2.50;1.17;;;18.80;99.90;;;;;;4402694;32;20084;-69
2021/09/10 06:55:37;;;;;;;1.55;0.80;;;18.80;99.90;;;;;;4405067;32;20151;-70
2021/09/10 06:58:03;;;;;;;2.55;1.27;;;19.00;99.90;;;;;;4424142;32;20082;-68
2021/09/10 07:00:29;;;;;;;1.25;0.80;;;19.10;99.90;;;;;;4420310;32;20062;-68
2021/09/10 07:02:54;;;;;;;3.30;0.50;;;19.20;99.90;;;;;;4421904;32;20157;-70
2021/09/10 07:05:20;;;;;;;2.78;1.33;;;19.30;99.90;;;;;;4421601;32;20065;-69
2021/09/10 07:07:45;;;;;;;0.88;0.88;;;19.30;99.90;;;;;;4420057;32;20057;-70
2021/09/10 07:10:10;;;;;;;0.98;0.80;;;19.30;99.90;;;;;;4419764;32;20082;-69
2021/09/10 07:12:36;;;;;;;1.48;1.08;;;19.40;99.90;;;;;;4421953;32;20073;-70
2021/09/10 07:15:03;;;;;;;4.00;1.50;;;19.50;99.90;;;;;;4417640;32;20108;-69
2021/09/10 07:17:29;;;;;;;1.85;1.27;;;19.60;99.90;;;;;;4415494;32;20148;-69
2021/09/10 07:19:55;;;;;;;0.82;0.80;;;19.70;99.90;;;;;;4417956;32;20073;-68
2021/09/10 07:22:20;;;;;;;0.50;0.50;;;19.60;99.90;;;;;;4424539;32;20057;-69
2021/09/10 07:24:46;;;;;;;1.10;0.90;;;19.70;99.90;;;;;;4421422;32;20069;-70
2021/09/10 07:27:11;;;;;;;3.35;1.58;;;19.70;99.90;;;;;;4417647;32;20057;-69
2021/09/10 07:29:37;;;;;;;0.62;0.62;;;19.80;99.90;;;;;;4421564;32;20069;-69
2021/09/10 07:32:02;;;;;;;0.50;0.50;;;19.90;99.90;;;;;;4418348;32;20481;-69
2021/09/10 07:34:28;;;;;;;0.70;0.70;;;20.00;99.90;;;;;;4412181;32;20176;-69
2021/09/10 07:36:53;;;;;;;5.05;1.87;;;20.10;99.90;;;;;;4416378;32;20070;-69
2021/09/10 07:39:21;;;;;;;1.17;0.70;;;20.20;99.90;;;;;;4424060;32;20081;-69
2021/09/10 07:41:47;;;;;;;1.00;0.85;;;20.30;99.90;;;;;;4407319;32;20073;-69
2021/09/10 07:44:16;;;;;;;0.65;0.65;;;20.30;99.90;;;;;;4401987;32;20073;-69
2021/09/10 07:46:43;;;;;;;1.42;1.00;;;20.50;99.90;;;;;;4423864;32;20086;-69
2021/09/10 07:49:09;;;;;;;0.50;0.50;;;20.60;99.90;;;;;;4410970;32;20082;-69
2021/09/10 07:51:36;;;;;;;1.05;0.93;;;20.60;99.90;;;;;;4422717;32;20078;-69
2021/09/10 07:54:03;;;;;;;0.50;0.50;;;20.70;99.90;;;;;;4392080;32;20638;-69
2021/09/10 07:56:28;;;;;;;0.62;0.55;;;20.80;99.90;;;;;;4422832;32;20057;-69
2021/09/10 07:58:54;;;;;;;6.60;1.60;;;20.90;99.90;;;;;;4428068;32;20076;-69
2021/09/10 08:01:19;;;;;;;24.35;1.37;;;21.00;99.90;;;;;;4419068;32;20077;-69
2021/09/10 08:03:45;;;;;;;1.10;0.68;;;21.10;99.90;;;;;;4586199;26;21538;-65
2021/09/10 08:06:28;;;;;;;2.50;1.12;;;21.20;99.90;;;;;;4613872;26;20135;-90
2021/09/10 08:08:56;;;;;;;1.00;0.80;;;21.30;99.90;;;;;;4406288;32;20501;-90
2021/09/10 08:11:26;;;;;;;1.33;0.60;;;21.30;99.90;;;;;;4405723;32;20152;-91
2021/09/10 08:13:59;;;;;;;0.50;0.50;;;21.40;99.90;;;;;;4409916;32;20084;-91
2021/09/10 08:16:29;;;;;;;2.00;1.27;;;21.60;99.90;;;;;;4410716;32;20875;-90
2021/09/10 08:18:57;;;;;;;0.95;0.77;;;21.60;99.90;;;;;;4410026;32;20081;-92
2021/09/10 08:21:26;;;;;;;0.80;0.80;;;21.70;99.90;;;;;;4403378;32;20091;-90
2021/09/10 08:24:02;;;;;;;1.05;0.93;;;21.80;99.90;;;;;;4405909;32;20062;-93
2021/09/10 08:26:43;;;;;;;0.65;0.50;;;21.90;99.90;;;;;;4402509;32;20555;-91
2021/09/10 08:29:23;;;;;;;0.40;0.40;;;22.00;99.90;;;;;;4410190;32;20094;-90
2021/09/10 08:31:54;;;;;;;1.25;0.50;;;22.10;99.90;;;;;;4411922;32;20090;-90
2021/09/10 08:34:30;;;;;;;1.75;0.82;;;22.20;99.90;;;;;;4410033;32;20140;-90
2021/09/10 08:39:41;;;;;;;1.15;1.05;;;22.40;99.90;;;;;;4409188;27;20094;-67
2021/09/10 08:42:08;;;;;;;1.35;0.50;;;22.40;99.90;;;;;;4406202;32;20078;-67
2021/09/10 08:44:37;;;;;;;0.80;0.73;;;22.40;99.90;;;;;;4407307;32;20062;-66
2021/09/10 08:47:03;;;;;;;7.18;0.60;;;22.50;99.90;;;;;;4393997;32;20086;-66
2021/09/10 08:49:28;;;;;;;0.50;0.50;;;22.70;99.90;;;;;;4407989;32;20081;-67
2021/09/10 08:51:54;;;;;;;0.45;0.45;;;22.70;99.90;;;;;;4411023;32;20070;-67
2021/09/10 08:54:19;;;;;;;2.35;0.93;;;22.80;99.90;;;;;;4406540;32;20073;-66
2021/09/10 08:56:45;;;;;;;1.65;0.88;;;22.80;99.90;;;;;;4408644;32;20084;-67
2021/09/10 08:59:15;;;;;;;0.40;0.40;;;22.90;99.90;;;;;;4407178;32;20077;-66
2021/09/10 09:01:50;;;;;;;1.23;0.93;;;22.90;99.90;;;;;;4409083;32;20070;-66
2021/09/10 09:04:16;;;;;;;0.32;0.32;;;23.00;99.90;;;;;;4404166;32;20179;-67
2021/09/10 09:06:41;;;;;;;0.40;0.40;;;23.20;99.90;;;;;;4408108;32;20073;-66
2021/09/10 09:09:07;;;;;;;0.28;0.28;;;23.30;99.90;;;;;;4415117;32;20073;-67
2021/09/10 09:11:32;;;;;;;0.50;0.50;;;23.40;99.90;;;;;;4409395;32;20077;-66
2021/09/10 09:14:03;;;;;;;1.40;1.17;;;23.50;99.90;;;;;;4407018;32;20155;-66
2021/09/10 09:16:30;;;;;;;0.80;0.75;;;23.60;99.90;;;;;;4406675;32;20081;-65
2021/09/10 09:18:59;;;;;;;1.25;0.80;;;23.60;99.90;;;;;;4408739;32;20297;-66
2021/09/10 09:21:27;;;;;;;1.55;0.73;;;23.70;99.90;;;;;;4407892;32;20428;-66
2021/09/10 09:23:56;;;;;;;0.73;0.60;;;23.90;99.90;;;;;;4405693;32;20102;-66
2021/09/10 09:26:25;;;;;;;0.40;0.40;;;24.10;99.90;;;;;;4404533;32;20132;-67
2021/09/10 09:29:03;;;;;;;4.30;1.20;;;24.20;99.90;;;;;;4394571;32;20489;-66
2021/09/10 09:31:28;;;;;;;1.23;0.90;;;24.30;99.90;;;;;;4394982;32;20093;-66
2021/09/10 09:33:54;;;;;;;1.60;0.60;;;24.60;99.90;;;;;;4404437;32;20069;-66
2021/09/10 09:36:20;;;;;;;0.77;0.50;;;24.70;99.90;;;;;;4407945;32;20250;-66
2021/09/10 09:38:46;;;;;;;0.45;0.45;;;24.80;99.90;;;;;;4396856;32;20100;-66
2021/09/10 09:41:14;;;;;;;0.52;0.50;;;24.90;99.90;;;;;;4390031;32;20077;-66
2021/09/10 09:43:42;;;;;;;0.90;0.55;;;25.00;99.90;;;;;;4399084;32;20134;-66
2021/09/10 09:46:10;;;;;;;0.40;0.40;;;25.20;99.90;;;;;;4400361;32;20140;-65
2021/09/10 09:48:38;;;;;;;1.25;0.85;;;25.30;99.90;;;;;;4401892;32;20099;-65
2021/09/10 09:51:05;;;;;;;1.12;0.75;;;25.40;99.90;;;;;;4400968;32;20505;-65
2021/09/10 09:53:30;;;;;;;0.62;0.40;;;25.40;99.90;;;;;;4450347;27;20086;-65
2021/09/10 09:55:56;;;;;;;0.55;0.45;;;25.40;99.90;;;;;;4411955;32;20112;-65
2021/09/10 09:58:22;;;;;;;1.75;0.45;;;25.50;99.90;;;;;;4413265;32;20084;-65
2021/09/10 10:00:48;;;;;;;0.82;0.40;;;25.60;99.90;;;;;;4415780;32;20139;-66
2021/09/10 10:03:14;;;;;;;0.37;0.37;;;25.70;99.90;;;;;;4405108;32;20179;-66
2021/09/10 10:05:51;;;;;;;0.98;0.77;;;25.80;99.90;;;;;;4408374;32;20090;-65
2021/09/10 10:08:22;;;;;;;2.15;1.40;;;25.90;99.90;;;;;;4410481;32;20444;-66
2021/09/10 10:10:51;;;;;;;0.32;0.32;;;25.90;99.90;;;;;;4414145;32;20332;-65
2021/09/10 10:13:33;;;;;;;3.37;0.17;;;26.10;99.90;;;;;;4410573;32;20519;-65
2021/09/10 10:15:59;;;;;;;4.18;1.02;;;26.20;99.90;;;;;;4416243;32;20138;-65
2021/09/10 10:18:44;;;;;;;0.40;0.30;;;26.30;99.90;;;;;;4412969;32;20093;-65
2021/09/10 10:21:11;;;;;;;2.37;0.40;;;26.40;99.90;;;;;;4398394;32;20104;-65
2021/09/10 10:23:48;;;;;;;0.55;0.55;;;26.60;99.90;;;;;;4414062;32;20149;-66
2021/09/10 10:26:20;;;;;;;4.65;1.08;;;26.70;99.90;;;;;;4411549;32;20078;-65
2021/09/10 10:28:53;;;;;;;2.20;1.05;;;26.80;99.90;;;;;;4413211;32;20187;-65
2021/09/10 10:31:58;;;;;;;1.17;0.62;;;27.00;99.90;;;;;;4415063;32;20120;-65
2021/09/10 10:34:25;;;;;;;0.88;0.70;;;26.90;99.90;;;;;;4418760;32;20116;-66
2021/09/10 10:36:51;;;;;;;0.40;0.37;;;27.00;99.90;;;;;;4420320;32;20093;-65
2021/09/10 10:39:26;;;;;;;0.37;0.32;;;26.90;99.90;;;;;;4424608;32;20156;-65
2021/09/10 10:41:55;;;;;;;0.40;0.40;;;26.90;99.90;;;;;;4417920;32;20478;-65
2021/09/10 10:44:39;;;;;;;2.92;0.77;;;27.00;99.90;;;;;;4417652;32;20069;-65
2021/09/10 10:47:10;;;;;;;0.30;0.30;;;26.90;99.90;;;;;;4415055;32;20209;-65
2021/09/10 10:49:38;;;;;;;2.90;1.10;;;27.00;99.90;;;;;;4416510;32;20078;-66
2021/09/10 10:52:24;;;;;;;0.55;0.55;;;27.00;99.90;;;;;;4398470;32;20097;-65
2021/09/10 10:55:19;;;;;;;0.50;0.37;;;27.30;99.90;;;;;;4371154;32;20078;-67
2021/09/10 10:57:46;;;;;;;1.12;0.57;;;27.50;99.90;;;;;;4387578;32;20603;-66
2021/09/10 11:00:33;;;;;;;1.42;0.85;;;27.70;99.90;;;;;;4402764;32;20164;-67
2021/09/10 11:03:16;;;;;;;0.25;0.25;;;27.80;99.90;;;;;;4395829;32;20150;-67
2021/09/10 11:05:45;;;;;;;0.68;0.43;;;27.90;99.90;;;;;;4398914;32;20068;-67
2021/09/10 11:08:11;;;;;;;0.20;0.20;;;28.10;99.90;;;;;;4399375;32;20129;-67
2021/09/10 11:10:37;;;;;;;1.85;0.77;;;27.90;99.90;;;;;;4395034;32;20126;-67
2021/09/10 11:13:03;;;;;;;1.17;0.95;;;28.00;99.90;;;;;;4391853;32;20081;-67
2021/09/10 11:15:31;;;;;;;0.20;0.20;;;28.20;99.90;;;;;;4402498;32;20132;-67
2021/09/10 11:17:59;;;;;;;0.50;0.50;;;28.30;99.90;;;;;;4388691;32;20133;-67
2021/09/10 11:20:28;;;;;;;0.70;0.60;;;28.40;99.90;;;;;;4389051;32;20086;-66
2021/09/10 11:22:54;;;;;;;0.22;0.22;;;28.70;99.90;;;;;;4387122;32;20499;-66
2021/09/10 11:25:19;;;;;;;0.25;0.25;;;28.90;99.90;;;;;;4402788;32;20105;-66
2021/09/10 11:27:45;;;;;;;0.13;0.13;;;29.00;99.90;;;;;;4397853;32;20086;-67
2021/09/10 11:30:12;;;;;;;0.93;0.60;;;29.20;99.90;;;;;;4406586;32;20092;-66
2021/09/10 11:32:39;;;;;;;0.70;0.45;;;29.20;99.90;;;;;;4385952;32;20745;-66
2021/09/10 11:35:22;;;;;;;5.72;1.08;;;29.40;99.90;;;;;;4375118;32;20085;-66
2021/09/10 11:37:57;;;;;;;1.33;0.65;;;29.50;99.90;;;;;;4390609;32;20073;-67
2021/09/10 11:40:42;;;;;;;1.35;0.70;;;29.70;99.90;;;;;;4378822;32;20097;-66
2021/09/10 11:43:13;;;;;;;1.00;0.62;;;29.80;99.90;;;;;;4375870;32;20128;-65
2021/09/10 11:46:00;;;;;;;3.60;0.85;;;30.00;99.90;;;;;;4402794;32;20114;-65
2021/09/10 11:48:30;;;;;;;0.25;0.25;;;29.70;99.90;;;;;;4385775;32;20299;-65
2021/09/10 11:50:58;;;;;;;0.20;0.20;;;29.50;99.90;;;;;;4383483;32;20086;-67
2021/09/10 11:53:30;;;;;;;3.67;0.50;;;29.60;99.90;;;;;;4403538;32;20531;-65
2021/09/10 11:56:07;;;;;;;0.60;0.55;;;30.00;99.90;;;;;;4402263;32;20069;-67
2021/09/10 11:58:41;;;;;;;0.20;0.20;;;30.40;99.80;;;;;;4401325;32;20081;-67
2021/09/10 12:01:35;;;;;;;0.40;0.32;;;30.70;99.00;;;;;;4392037;32;20073;-67
2021/09/10 12:04:03;;;;;;;0.30;0.30;;;30.60;98.30;;;;;;4389419;32;20102;-67
2021/09/10 12:06:32;;;;;;;0.55;0.50;;;30.20;99.20;;;;;;4401386;32;20097;-67
2021/09/10 12:09:06;;;;;;;0.62;0.30;;;29.90;99.50;;;;;;4401630;32;20098;-67
2021/09/10 12:11:32;;;;;;;2.85;0.77;;;29.40;99.90;;;;;;4401321;32;20097;-67
2021/09/10 12:13:57;;;;;;;0.13;0.13;;;28.80;99.90;;;;;;4403702;32;20062;-67
2021/09/10 12:16:23;;;;;;;0.37;0.37;;;28.40;99.90;;;;;;4406523;32;20152;-67
2021/09/10 12:19:05;;;;;;;0.20;0.20;;;28.10;99.90;;;;;;4406186;32;20073;-67
2021/09/10 12:21:33;;;;;;;1.98;1.08;;;27.80;99.90;;;;;;4396495;32;20570;-66
2021/09/10 12:24:09;;;;;;;1.30;0.82;;;27.60;99.90;;;;;;4392557;32;20153;-66
2021/09/10 12:26:55;;;;;;;0.88;0.70;;;27.40;99.90;;;;;;4399844;32;20609;-66
2021/09/10 12:29:25;;;;;;;3.50;0.98;;;26.50;99.90;;;;;;4392668;32;20081;-66
2021/09/10 12:31:52;;;;;;;2.75;0.65;;;25.80;99.90;;;;;;4402664;32;20445;-66
2021/09/10 12:34:18;;;;;;;3.70;0.50;;;25.30;99.90;;;;;;4394804;32;20082;-66
2021/09/10 12:36:46;;;;;;;0.57;0.45;;;25.00;99.90;;;;;;4401613;32;20129;-65
2021/09/10 12:39:13;;;;;;;0.30;0.30;;;24.60;99.90;;;;;;4409649;32;20085;-66
2021/09/10 12:41:38;;;;;;;1.15;1.00;;;24.60;99.90;;;;;;4412696;32;20078;-66
2021/09/10 12:44:08;;;;;;;1.00;0.65;;;24.50;99.90;;;;;;4412171;32;20069;-66
2021/09/10 12:46:34;;;;;;;5.65;1.48;;;24.40;99.90;;;;;;4403990;32;20126;-66
2021/09/10 12:49:00;;;;;;;0.40;0.40;;;24.10;99.90;;;;;;4407545;32;20088;-67
2021/09/10 12:51:25;;;;;;;1.92;1.35;;;24.00;99.90;;;;;;4409568;32;20108;-66